createdAt,value
2022-11-17T00:00:42.336Z,99670.59
2022-11-17T00:03:16.402Z,99673.56
2022-11-17T00:05:44.907Z,99676.53
2022-11-17T00:08:12.091Z,99670.84
2022-11-17T00:10:39.127Z,99676.94
2022-11-17T00:13:24.587Z,99673.34
2022-11-17T00:15:51.583Z,99676.06
2022-11-17T00:18:37.169Z,99673.59
2022-11-17T00:21:19.955Z,99669.38
2022-11-17T00:23:47.922Z,99674.84
2022-11-17T00:26:21.423Z,99677.38
2022-11-17T00:28:56.548Z,99669.53
2022-11-17T00:31:44.001Z,99679.13
2022-11-17T00:34:16.677Z,99683.72
2022-11-17T00:36:49.702Z,99686.63
2022-11-17T00:39:19.399Z,99692.91
2022-11-17T00:41:46.555Z,99696.03
2022-11-17T00:44:14.470Z,99678.41
2022-11-17T00:46:43.190Z,99687.13
2022-11-17T00:49:11.614Z,99679.69
2022-11-17T00:51:39.282Z,99686.00
2022-11-17T00:54:08.441Z,99682.16
2022-11-17T00:56:35.547Z,99693.34
2022-11-17T00:59:04.340Z,99689.25
2022-11-17T01:01:31.683Z,99692.97
2022-11-17T01:04:03.598Z,99682.78
2022-11-17T01:06:41.786Z,99688.34
2022-11-17T01:09:17.690Z,99680.84
2022-11-17T01:11:45.064Z,99692.22
2022-11-17T01:14:22.795Z,99691.13
2022-11-17T01:16:50.277Z,99699.19
2022-11-17T01:19:19.038Z,99684.66
2022-11-17T01:21:47.124Z,99675.22
2022-11-17T01:24:16.484Z,99681.75
2022-11-17T01:26:45.396Z,99677.63
2022-11-17T01:29:17.343Z,99697.59
2022-11-17T01:31:45.741Z,99685.59
2022-11-17T01:34:13.111Z,99687.81
2022-11-17T01:37:01.605Z,99693.16
2022-11-17T01:39:30.429Z,99696.09
2022-11-17T01:41:58.117Z,99692.19
2022-11-17T01:44:59.849Z,99686.66
2022-11-17T01:47:37.590Z,99688.00
2022-11-17T01:50:33.670Z,99665.94
2022-11-17T01:53:05.143Z,99681.22
2022-11-17T01:55:45.580Z,99683.63
2022-11-17T01:58:20.374Z,99692.69
2022-11-17T02:00:47.976Z,99686.50
2022-11-17T02:03:14.989Z,99689.03
2022-11-17T02:06:07.209Z,99672.47
2022-11-17T02:08:38.718Z,99677.16
2022-11-17T02:11:14.196Z,99674.94
2022-11-17T02:13:41.772Z,99675.06
2022-11-17T02:16:14.194Z,99673.44
2022-11-17T02:18:43.542Z,99663.81
2022-11-17T02:21:22.036Z,99672.91
2022-11-17T02:24:16.397Z,99659.69
2022-11-17T02:27:28.999Z,99663.28
2022-11-17T02:30:12.140Z,99663.16
2022-11-17T02:33:17.291Z,99659.06
2022-11-17T02:35:58.524Z,99658.75
2022-11-17T02:38:49.927Z,99661.09
2022-11-17T02:41:35.362Z,99662.97
2022-11-17T02:44:27.324Z,99691.91
2022-11-17T02:47:09.563Z,99665.78
2022-11-17T02:49:45.426Z,99658.50
2022-11-17T02:52:14.456Z,99678.13
2022-11-17T02:54:41.686Z,99670.19
2022-11-17T02:57:31.404Z,99657.78
2022-11-17T03:00:14.940Z,99671.88
2022-11-17T03:03:18.678Z,99667.59
2022-11-17T03:06:29.921Z,99664.88
2022-11-17T03:09:25.853Z,99662.91
2022-11-17T03:12:02.897Z,99672.69
2022-11-17T03:15:15.490Z,99668.94
2022-11-17T03:18:06.240Z,99665.25
2022-11-17T03:21:01.822Z,99662.66
2022-11-17T03:23:49.972Z,99681.59
2022-11-17T03:26:27.542Z,99680.00
2022-11-17T03:28:56.447Z,99667.41
2022-11-17T03:31:26.325Z,99671.19
2022-11-17T03:33:54.568Z,99658.06
2022-11-17T03:36:34.160Z,99659.59
2022-11-17T03:39:25.904Z,99660.78
2022-11-17T03:42:00.144Z,99665.78
2022-11-17T03:44:30.560Z,99676.47
2022-11-17T03:47:00.154Z,99672.00
2022-11-17T03:49:52.747Z,99662.03
2022-11-17T03:52:20.804Z,99676.72
2022-11-17T03:54:48.294Z,99677.63
2022-11-17T03:57:54.532Z,99664.72
2022-11-17T04:00:21.683Z,99669.19
2022-11-17T04:02:54.323Z,99666.16
2022-11-17T04:05:21.890Z,99661.13
2022-11-17T04:07:49.249Z,99662.03
2022-11-17T04:10:20.286Z,99657.91
2022-11-17T04:13:07.334Z,99660.31
2022-11-17T04:15:52.918Z,99663.84
2022-11-17T04:18:21.330Z,99667.97
2022-11-17T04:20:54.991Z,99658.38
2022-11-17T04:23:23.725Z,99664.19
2022-11-17T04:26:12.361Z,99662.03
2022-11-17T04:28:49.600Z,99664.63
2022-11-17T04:31:25.808Z,99668.31
2022-11-17T04:33:56.321Z,99667.50
2022-11-17T04:36:35.726Z,99666.53
2022-11-17T04:39:03.631Z,99670.28
2022-11-17T04:41:49.332Z,99668.06
2022-11-17T04:44:17.957Z,99670.09
2022-11-17T04:46:48.796Z,99660.84
2022-11-17T04:49:18.041Z,99669.91
2022-11-17T04:51:46.223Z,99669.03
2022-11-17T04:54:16.760Z,99681.22
2022-11-17T04:56:44.008Z,99672.59
2022-11-17T04:59:11.154Z,99676.47
2022-11-17T05:01:38.691Z,99670.13
2022-11-17T05:04:15.447Z,99668.94
2022-11-17T05:06:44.965Z,99666.16
2022-11-17T05:09:17.134Z,99680.16
2022-11-17T05:12:02.755Z,99674.31
2022-11-17T05:14:30.561Z,99667.78
2022-11-17T05:17:11.265Z,99668.22
2022-11-17T05:19:44.851Z,99672.16
2022-11-17T05:22:36.810Z,99669.19
2022-11-17T05:25:05.220Z,99672.25
2022-11-17T05:27:34.021Z,99662.50
2022-11-17T05:30:03.434Z,99660.50
2022-11-17T05:32:30.410Z,99667.06
2022-11-17T05:34:57.462Z,99670.28
2022-11-17T05:37:24.529Z,99657.38
2022-11-17T05:39:51.447Z,99669.22
2022-11-17T05:42:18.473Z,99668.94
2022-11-17T05:44:46.440Z,99682.41
2022-11-17T05:47:13.409Z,99664.81
2022-11-17T05:49:40.665Z,99673.16
2022-11-17T05:52:07.718Z,99678.91
2022-11-17T05:54:34.878Z,99667.59
2022-11-17T05:57:19.900Z,99666.25
2022-11-17T05:59:54.483Z,99673.41
2022-11-17T06:02:39.097Z,99680.94
2022-11-17T06:05:07.724Z,99686.50
2022-11-17T06:07:37.078Z,99691.09
2022-11-17T06:10:05.080Z,99674.97
2022-11-17T06:12:32.070Z,99683.91
2022-11-17T06:14:59.060Z,99683.09
2022-11-17T06:17:35.408Z,99681.13
2022-11-17T06:20:21.768Z,99687.13
2022-11-17T06:22:49.263Z,99692.72
2022-11-17T06:25:20.710Z,99684.91
2022-11-17T06:27:49.673Z,99679.75
2022-11-17T06:30:17.497Z,99686.44
2022-11-17T06:32:45.445Z,99691.72
2022-11-17T06:35:14.519Z,99686.31
2022-11-17T06:37:41.538Z,99687.56
2022-11-17T06:40:10.242Z,99696.47
2022-11-17T06:42:58.450Z,99692.72
2022-11-17T06:45:25.879Z,99695.38
2022-11-17T06:47:53.889Z,99692.59
2022-11-17T06:50:21.099Z,99698.19
2022-11-17T06:52:48.087Z,99698.34
2022-11-17T06:55:15.208Z,99689.03
2022-11-17T06:57:42.381Z,99687.75
2022-11-17T07:00:10.581Z,99685.97
2022-11-17T07:02:37.741Z,99690.38
2022-11-17T07:05:05.538Z,99690.09
2022-11-17T07:07:32.555Z,99697.16
2022-11-17T07:09:59.587Z,99689.47
2022-11-17T07:12:26.567Z,99703.97
2022-11-17T07:14:53.685Z,99696.91
2022-11-17T07:17:20.629Z,99706.06
2022-11-17T07:19:47.677Z,99701.22
2022-11-17T07:22:14.702Z,99696.75
2022-11-17T07:24:41.730Z,99690.28
2022-11-17T07:27:08.923Z,99700.75
2022-11-17T07:29:35.937Z,99705.50
2022-11-17T07:32:03.689Z,99720.97
2022-11-17T07:34:30.866Z,99710.75
2022-11-17T07:36:58.711Z,99729.31
2022-11-17T07:39:25.696Z,99729.84
2022-11-17T07:41:52.629Z,99717.63
2022-11-17T07:44:19.660Z,99712.50
2022-11-17T07:46:46.899Z,99722.44
2022-11-17T07:49:13.946Z,99735.44
2022-11-17T07:51:41.103Z,99729.53
2022-11-17T07:54:08.061Z,99715.53
2022-11-17T07:56:35.224Z,99719.59
2022-11-17T07:59:02.338Z,99720.81
2022-11-17T08:01:29.780Z,99720.97
2022-11-17T08:03:57.925Z,99714.59
2022-11-17T08:06:25.192Z,99719.44
2022-11-17T08:08:53.604Z,99719.94
2022-11-17T08:11:21.062Z,99715.31
2022-11-17T08:13:48.212Z,99721.75
2022-11-17T08:16:15.164Z,99721.09
2022-11-17T08:18:45.962Z,99724.13
2022-11-17T08:21:15.914Z,99718.69
2022-11-17T08:23:43.179Z,99726.13
2022-11-17T08:26:11.794Z,99714.25
2022-11-17T08:28:39.364Z,99719.13
2022-11-17T08:31:08.815Z,99716.03
2022-11-17T08:33:36.062Z,99715.53
2022-11-17T08:36:07.316Z,99729.84
2022-11-17T08:38:35.227Z,99719.84
2022-11-17T08:41:06.224Z,99714.72
2022-11-17T08:43:33.450Z,99734.59
2022-11-17T08:46:02.369Z,99722.00
2022-11-17T08:48:31.781Z,99718.88
2022-11-17T08:51:04.278Z,99711.44
2022-11-17T08:53:31.390Z,99721.03
2022-11-17T08:55:58.610Z,99716.47
2022-11-17T08:58:25.889Z,99719.22
2022-11-17T09:00:53.012Z,99710.31
2022-11-17T09:03:20.124Z,99710.13
2022-11-17T09:05:47.204Z,99710.47
2022-11-17T09:08:43.877Z,99720.31
2022-11-17T09:11:11.624Z,99714.28
2022-11-17T09:13:40.333Z,99709.59
2022-11-17T09:16:10.715Z,99715.00
2022-11-17T09:18:39.187Z,99723.69
2022-11-17T09:21:15.315Z,99719.00
2022-11-17T09:23:42.576Z,99706.03
2022-11-17T09:26:13.742Z,99701.47
2022-11-17T09:28:41.187Z,99720.03
2022-11-17T09:31:19.348Z,99717.91
2022-11-17T09:33:46.857Z,99703.94
2022-11-17T09:36:16.024Z,99707.22
2022-11-17T09:38:43.145Z,99707.03
2022-11-17T09:41:22.267Z,99709.28
2022-11-17T09:44:08.947Z,99702.03
2022-11-17T09:47:01.973Z,99693.38
2022-11-17T09:49:40.796Z,99701.00
2022-11-17T09:52:39.594Z,99692.81
2022-11-17T09:55:09.156Z,99713.16
2022-11-17T09:57:45.571Z,99701.03
2022-11-17T10:00:20.190Z,99694.53
2022-11-17T10:02:47.921Z,99684.00
2022-11-17T10:05:33.092Z,99697.22
2022-11-17T10:08:13.001Z,99690.38
2022-11-17T10:10:50.291Z,99682.19
2022-11-17T10:13:36.658Z,99686.19
2022-11-17T10:16:06.218Z,99667.88
2022-11-17T10:18:38.259Z,99676.16
2022-11-17T10:21:08.325Z,99679.88
2022-11-17T10:23:44.769Z,99680.97
2022-11-17T10:26:15.665Z,99684.84
2022-11-17T10:28:43.422Z,99669.28
2022-11-17T10:31:17.682Z,99681.84
2022-11-17T10:33:48.567Z,99669.91
2022-11-17T10:36:20.840Z,99658.97
2022-11-17T10:38:55.173Z,99675.53
2022-11-17T10:41:42.837Z,99676.47
2022-11-17T10:44:12.816Z,99675.53
2022-11-17T10:47:03.124Z,99673.22
2022-11-17T10:49:35.738Z,99679.44
2022-11-17T10:52:11.762Z,99680.97
2022-11-17T10:54:39.330Z,99673.09
2022-11-17T10:57:13.754Z,99676.19
2022-11-17T10:59:59.579Z,99679.50
2022-11-17T11:02:40.265Z,99676.59
2022-11-17T11:05:13.960Z,99668.88
2022-11-17T11:07:41.931Z,99666.66
2022-11-17T11:10:23.644Z,99666.59
2022-11-17T11:13:32.578Z,99662.53
2022-11-17T11:16:00.023Z,99670.53
2022-11-17T11:18:30.301Z,99663.53
2022-11-17T11:21:14.207Z,99660.31
2022-11-17T11:24:09.127Z,99656.63
2022-11-17T11:27:12.619Z,99653.16
2022-11-17T11:29:39.471Z,99657.44
2022-11-17T11:32:21.042Z,99654.69
2022-11-17T11:34:59.946Z,99653.78
2022-11-17T11:38:07.235Z,99648.31
2022-11-17T11:40:40.759Z,99640.69
2022-11-17T11:43:29.208Z,99644.50
2022-11-17T11:46:16.225Z,99646.78
2022-11-17T11:48:43.379Z,99642.63
2022-11-17T11:51:29.088Z,99641.03
2022-11-17T11:54:28.012Z,99654.13
2022-11-17T11:56:55.610Z,99641.38
2022-11-17T12:00:02.428Z,99640.56
2022-11-17T12:03:13.404Z,99648.09
2022-11-17T12:06:24.355Z,99641.63
2022-11-17T12:09:18.965Z,99638.44
2022-11-17T12:12:03.207Z,99648.31
2022-11-17T12:14:34.242Z,99641.84
2022-11-17T12:17:07.202Z,99645.88
2022-11-17T12:19:59.591Z,99640.31
2022-11-17T12:22:29.457Z,99647.75
2022-11-17T12:25:24.647Z,99642.53
2022-11-17T12:27:53.386Z,99645.25
2022-11-17T12:30:36.738Z,99648.47
2022-11-17T12:33:06.862Z,99632.41
2022-11-17T12:35:37.364Z,99631.16
2022-11-17T12:38:20.013Z,99632.97
2022-11-17T12:40:47.777Z,99629.97
2022-11-17T12:43:25.559Z,99638.03
2022-11-17T12:46:23.964Z,99624.16
2022-11-17T12:49:28.255Z,99618.34
2022-11-17T12:52:06.238Z,99613.53
2022-11-17T12:54:59.883Z,99615.88
2022-11-17T12:57:34.265Z,99620.41
2022-11-17T13:00:25.823Z,99618.94
2022-11-17T13:03:24.975Z,99616.50
2022-11-17T13:09:12.219Z,99612.78
2022-11-17T13:11:39.213Z,99604.06
2022-11-17T13:14:15.808Z,99601.19
2022-11-17T13:16:50.976Z,99604.13
2022-11-17T13:19:36.797Z,99600.84
2022-11-17T13:22:13.833Z,99603.44
2022-11-17T13:24:47.283Z,99599.72
2022-11-17T13:27:30.621Z,99592.72
2022-11-17T13:30:30.377Z,99596.03
2022-11-17T13:33:01.676Z,99603.38
2022-11-17T13:35:35.590Z,99595.09
2022-11-17T13:38:23.779Z,99597.72
2022-11-17T13:40:53.534Z,99599.94
2022-11-17T13:43:23.206Z,99583.44
2022-11-17T13:45:54.839Z,99583.31
2022-11-17T13:48:40.746Z,99583.28
2022-11-17T13:51:27.882Z,99586.09
2022-11-17T13:54:05.354Z,99590.41
2022-11-17T13:56:42.875Z,99582.78
2022-11-17T13:59:33.958Z,99590.06
2022-11-17T14:02:21.657Z,99590.31
2022-11-17T14:05:11.224Z,99589.69
2022-11-17T14:07:40.005Z,99587.09
2022-11-17T14:10:22.498Z,99577.63
2022-11-17T14:12:52.699Z,99590.44
2022-11-17T14:15:29.220Z,99594.59
2022-11-17T14:18:03.001Z,99591.25
2022-11-17T14:20:35.800Z,99582.72
2022-11-17T14:23:17.974Z,99582.38
2022-11-17T14:25:50.131Z,99584.31
2022-11-17T14:28:23.018Z,99580.38
2022-11-17T14:30:53.446Z,99586.56
2022-11-17T14:33:20.900Z,99579.03
2022-11-17T14:35:59.270Z,99578.59
2022-11-17T14:38:26.309Z,99584.59
2022-11-17T14:40:53.914Z,99582.38
2022-11-17T14:43:22.597Z,99586.84
2022-11-17T14:45:50.620Z,99580.56
2022-11-17T14:48:19.456Z,99582.72
2022-11-17T14:50:47.479Z,99584.41
2022-11-17T14:53:14.991Z,99581.91
2022-11-17T14:55:41.992Z,99591.13
2022-11-17T14:58:10.103Z,99578.34
2022-11-17T15:00:37.647Z,99586.69
2022-11-17T15:03:04.863Z,99599.81
2022-11-17T15:05:31.975Z,99583.94
2022-11-17T15:07:59.045Z,99583.53
2022-11-17T15:10:26.118Z,99587.50
2022-11-17T15:12:53.072Z,99592.75
2022-11-17T15:15:20.064Z,99589.19
2022-11-17T15:17:47.109Z,99586.69
2022-11-17T15:20:14.394Z,99594.34
2022-11-17T15:22:41.465Z,99585.34
2022-11-17T15:25:09.234Z,99594.44
2022-11-17T15:27:36.239Z,99591.44
2022-11-17T15:30:04.555Z,99591.22
2022-11-17T15:32:32.672Z,99580.38
2022-11-17T15:34:59.660Z,99575.53
2022-11-17T15:37:27.250Z,99577.94
2022-11-17T15:39:54.371Z,99579.03
2022-11-17T15:42:21.385Z,99574.56
2022-11-17T15:44:48.630Z,99570.06
2022-11-17T15:47:15.705Z,99570.88
2022-11-17T15:49:42.939Z,99577.72
2022-11-17T15:52:09.893Z,99571.81
2022-11-17T15:54:36.884Z,99574.50
2022-11-17T15:57:04.641Z,99568.78
2022-11-17T15:59:32.048Z,99571.03
2022-11-17T16:01:59.043Z,99574.63
2022-11-17T16:04:26.106Z,99573.91
2022-11-17T16:06:53.116Z,99580.81
2022-11-17T16:09:20.432Z,99574.78
2022-11-17T16:11:47.538Z,99587.47
2022-11-17T16:14:15.090Z,99592.44
2022-11-17T16:16:42.369Z,99584.88
2022-11-17T16:19:09.492Z,99576.72
2022-11-17T16:21:36.547Z,99583.25
2022-11-17T16:24:03.713Z,99585.28
2022-11-17T16:26:31.751Z,99578.28
2022-11-17T16:29:00.984Z,99583.34
2022-11-17T16:31:30.772Z,99579.22
2022-11-17T16:34:06.598Z,99571.34
2022-11-17T16:36:37.483Z,99580.09
2022-11-17T16:39:08.091Z,99579.94
2022-11-17T16:41:38.730Z,99574.13
2022-11-17T16:44:15.081Z,99570.16
2022-11-17T16:46:45.771Z,99573.78
2022-11-17T16:49:15.955Z,99570.03
2022-11-17T16:51:52.115Z,99573.34
2022-11-17T16:54:19.976Z,99565.63
2022-11-17T16:56:47.033Z,99555.59
2022-11-17T16:59:14.953Z,99552.94
2022-11-17T17:01:42.132Z,99557.56
2022-11-17T17:04:10.703Z,99557.56
2022-11-17T17:06:44.307Z,99557.75
2022-11-17T17:09:13.657Z,99551.72
2022-11-17T17:11:41.116Z,99552.66
2022-11-17T17:14:11.951Z,99556.41
2022-11-17T17:16:39.043Z,99557.66
2022-11-17T17:19:09.581Z,99560.28
2022-11-17T17:21:38.259Z,99557.41
2022-11-17T17:24:06.131Z,99562.06
2022-11-17T17:26:34.881Z,99549.13
2022-11-17T17:29:04.631Z,99555.88
2022-11-17T17:31:39.939Z,99546.91
2022-11-17T17:34:08.527Z,99554.16
2022-11-17T17:36:37.121Z,99535.09
2022-11-17T17:39:05.692Z,99538.94
2022-11-17T17:41:38.194Z,99529.75
2022-11-17T17:44:07.601Z,99533.94
2022-11-17T17:46:37.980Z,99529.72
2022-11-17T17:49:05.991Z,99525.78
2022-11-17T17:51:36.613Z,99521.84
2022-11-17T17:54:03.695Z,99514.59
2022-11-17T17:56:30.796Z,99531.28
2022-11-17T17:58:58.418Z,99529.53
2022-11-17T18:01:28.323Z,99524.59
2022-11-17T18:04:01.407Z,99528.38
2022-11-17T18:06:28.875Z,99523.72
2022-11-17T18:08:57.168Z,99527.28
2022-11-17T18:11:24.737Z,99521.75
2022-11-17T18:13:52.931Z,99518.97
2022-11-17T18:16:26.991Z,99511.50
2022-11-17T18:19:03.064Z,99507.66
2022-11-17T18:21:30.648Z,99508.13
2022-11-17T18:24:01.376Z,99504.91
2022-11-17T18:26:35.383Z,99500.16
2022-11-17T18:29:18.587Z,99499.50
2022-11-17T18:31:47.375Z,99506.00
2022-11-17T18:34:21.808Z,99498.41
2022-11-17T18:36:51.293Z,99498.53
2022-11-17T18:39:18.716Z,99494.69
2022-11-17T18:41:45.915Z,99494.84
2022-11-17T18:44:15.295Z,99490.34
2022-11-17T18:46:42.558Z,99493.41
2022-11-17T18:49:09.627Z,99494.31
2022-11-17T18:51:36.642Z,99490.97
2022-11-17T18:54:04.200Z,99496.81
2022-11-17T18:56:38.462Z,99494.25
2022-11-17T18:59:13.566Z,99500.66
2022-11-17T19:01:43.243Z,99498.34
2022-11-17T19:04:13.686Z,99493.22
2022-11-17T19:06:40.841Z,99484.44
2022-11-17T19:09:08.409Z,99487.91
2022-11-17T19:11:35.634Z,99481.44
2022-11-17T19:14:04.250Z,99486.72
2022-11-17T19:16:32.583Z,99491.38
2022-11-17T19:18:59.842Z,99479.88
2022-11-17T19:21:30.828Z,99486.25
2022-11-17T19:24:00.440Z,99482.75
2022-11-17T19:26:36.016Z,99470.28
2022-11-17T19:29:15.543Z,99475.13
2022-11-17T19:31:44.085Z,99473.69
2022-11-17T19:34:11.511Z,99473.69
2022-11-17T19:36:38.682Z,99471.44
2022-11-17T19:39:05.769Z,99474.31
2022-11-17T19:41:38.388Z,99475.13
2022-11-17T19:44:08.469Z,99479.47
2022-11-17T19:46:36.889Z,99480.41
2022-11-17T19:49:06.138Z,99474.78
2022-11-17T19:51:38.498Z,99472.38
2022-11-17T19:54:08.802Z,99462.00
2022-11-17T19:56:37.234Z,99465.56
2022-11-17T19:59:04.900Z,99466.34
2022-11-17T20:01:33.588Z,99471.56
2022-11-17T20:04:01.932Z,99473.72
2022-11-17T20:06:37.064Z,99473.34
2022-11-17T20:09:13.270Z,99479.97
2022-11-17T20:11:41.320Z,99476.31
2022-11-17T20:14:08.994Z,99473.63
2022-11-17T20:16:38.642Z,99466.91
2022-11-17T20:19:05.946Z,99472.63
2022-11-17T20:21:33.723Z,99468.69
2022-11-17T20:24:01.921Z,99463.81
2022-11-17T20:26:32.206Z,99470.28
2022-11-17T20:29:00.549Z,99467.25
2022-11-17T20:31:32.154Z,99467.06
2022-11-17T20:34:01.020Z,99462.69
2022-11-17T20:36:31.219Z,99454.88
2022-11-17T20:39:02.342Z,99454.09
2022-11-17T20:41:30.358Z,99449.69
2022-11-17T20:43:59.939Z,99457.69
2022-11-17T20:46:27.977Z,99450.13
2022-11-17T20:48:55.395Z,99454.00
2022-11-17T20:51:25.183Z,99448.47
2022-11-17T20:53:52.474Z,99449.06
2022-11-17T20:56:19.939Z,99444.69
2022-11-17T20:58:47.416Z,99440.56
2022-11-17T21:01:20.648Z,99434.81
2022-11-17T21:03:47.929Z,99433.94
2022-11-17T21:06:16.486Z,99431.97
2022-11-17T21:08:45.134Z,99426.75
2022-11-17T21:11:34.303Z,99427.38
2022-11-17T21:14:02.070Z,99409.03
2022-11-17T21:16:29.485Z,99414.75
2022-11-17T21:18:56.540Z,99416.19
2022-11-17T21:21:23.560Z,99411.72
2022-11-17T21:23:54.306Z,99418.22
2022-11-17T21:26:23.021Z,99411.09
2022-11-17T21:28:50.567Z,99405.72
2022-11-17T21:31:27.449Z,99403.31
2022-11-17T21:33:57.504Z,99408.53
2022-11-17T21:36:27.408Z,99408.19
2022-11-17T21:38:55.797Z,99408.91
2022-11-17T21:41:30.099Z,99408.81
2022-11-17T21:44:03.226Z,99402.00
2022-11-17T21:46:33.920Z,99401.50
2022-11-17T21:49:01.355Z,99405.69
2022-11-17T21:51:35.364Z,99398.63
2022-11-17T21:54:05.726Z,99391.19
2022-11-17T21:56:33.208Z,99384.22
2022-11-17T21:59:10.231Z,99385.19
2022-11-17T22:01:37.955Z,99379.38
2022-11-17T22:04:06.046Z,99379.47
2022-11-17T22:06:33.875Z,99386.91
2022-11-17T22:09:00.928Z,99388.44
2022-11-17T22:11:37.689Z,99391.72
2022-11-17T22:14:18.274Z,99390.22
2022-11-17T22:16:56.413Z,99386.00
2022-11-17T22:19:27.874Z,99382.53
2022-11-17T22:21:55.411Z,99382.59
2022-11-17T22:24:23.286Z,99377.88
2022-11-17T22:26:51.696Z,99372.22
2022-11-17T22:29:22.352Z,99378.75
2022-11-17T22:31:50.885Z,99382.59
2022-11-17T22:34:19.022Z,99380.53
2022-11-17T22:36:46.242Z,99379.66
2022-11-17T22:39:13.691Z,99379.53
2022-11-17T22:41:40.895Z,99373.28
2022-11-17T22:44:08.049Z,99366.66
2022-11-17T22:46:36.419Z,99371.84
2022-11-17T22:49:04.102Z,99369.44
2022-11-17T22:51:50.112Z,99368.53
2022-11-17T22:54:17.319Z,99375.34
2022-11-17T22:56:45.625Z,99367.94
2022-11-17T22:59:12.697Z,99377.56
2022-11-17T23:01:39.803Z,99370.50
2022-11-17T23:04:07.050Z,99372.31
2022-11-17T23:06:34.391Z,99366.13
2022-11-17T23:09:01.456Z,99368.53
2022-11-17T23:11:38.365Z,99368.81
2022-11-17T23:14:09.493Z,99382.44
2022-11-17T23:16:37.886Z,99377.66
2022-11-17T23:19:05.835Z,99391.09
2022-11-17T23:21:33.347Z,99386.09
2022-11-17T23:24:00.434Z,99382.72
2022-11-17T23:26:27.567Z,99381.16
2022-11-17T23:28:54.711Z,99384.75
2022-11-17T23:31:21.680Z,99382.31
2022-11-17T23:33:49.108Z,99382.03
2022-11-17T23:36:19.450Z,99376.50
2022-11-17T23:38:48.274Z,99369.53
2022-11-17T23:41:19.283Z,99371.00
2022-11-17T23:43:49.684Z,99363.53
2022-11-17T23:46:19.756Z,99369.88
2022-11-17T23:48:47.111Z,99361.47
2022-11-17T23:51:25.805Z,99350.00
2022-11-17T23:53:53.209Z,99364.66
2022-11-17T23:56:21.311Z,99358.03
2022-11-17T23:58:49.247Z,99353.13
